Time;durP1;ratioP1;P1;durP2;ratioP2;P2;SDS_P1;SDS_P2;PMS_P1;PMS_P2;Temp;Humidity;BMP_temperature;BMP_pressure;BME280_temperature;BME280_humidity;BME280_pressure;Samples;Min_cycle;Max_cycle;Signal;HPM_P1;HPM_P2
2022/03/18 00:02:21;;;;;;;17.27;7.60;;;;;;;0.19;89.76;103901.53;4965600;28;20188;-72
2022/03/18 00:04:47;;;;;;;18.53;7.77;;;;;;;0.18;89.32;103907.31;4958822;28;20299;-72
2022/03/18 00:07:14;;;;;;;21.60;7.30;;;;;;;0.14;88.92;103915.25;4971360;28;20312;-72
2022/03/18 00:09:41;;;;;;;18.77;7.40;;;;;;;0.08;89.28;103926.25;4970647;28;20674;-72
2022/03/18 00:12:11;;;;;;;18.03;7.10;;;;;;;0.10;88.88;103929.88;4972457;28;20204;-73
2022/03/18 00:14:39;;;;;;;25.00;7.93;;;;;;;0.06;89.51;103925.22;4972341;28;20694;-72
2022/03/18 00:17:05;;;;;;;17.33;7.17;;;;;;;0.03;88.47;103924.88;4971021;28;20533;-72
2022/03/18 00:19:31;;;;;;;21.97;7.10;;;;;;;0.03;89.10;103931.53;4971896;28;20261;-72
2022/03/18 00:22:01;;;;;;;28.90;8.10;;;;;;;0.06;89.44;103928.59;4972195;28;20196;-72
2022/03/18 00:24:26;;;;;;;31.57;10.07;;;;;;;0.05;89.74;103934.38;4970210;28;20209;-72
2022/03/18 00:26:52;;;;;;;29.13;9.40;;;;;;;0.03;89.76;103924.00;4971434;28;20235;-72
2022/03/18 00:29:17;;;;;;;30.53;9.70;;;;;;;-0.06;90.75;103929.78;4970770;28;20211;-72
2022/03/18 00:31:43;;;;;;;28.10;10.03;;;;;;;-0.21;89.64;103929.69;4972374;28;20238;-72
2022/03/18 00:34:10;;;;;;;30.63;9.63;;;;;;;-0.18;90.07;103928.41;4971558;28;20212;-72
2022/03/18 00:36:36;;;;;;;23.53;8.77;;;;;;;-0.24;89.59;103931.88;4972080;28;20188;-72
2022/03/18 00:39:01;;;;;;;25.97;9.00;;;;;;;-0.25;89.14;103925.06;4970230;28;20650;-72
2022/03/18 00:41:27;;;;;;;21.90;7.67;;;;;;;-0.32;89.22;103925.09;4971860;28;20254;-72
2022/03/18 00:43:53;;;;;;;22.07;8.30;;;;;;;-0.31;89.18;103929.41;4971837;28;20199;-72
2022/03/18 00:46:22;;;;;;;27.13;8.80;;;;;;;-0.31;89.34;103924.38;4966753;28;20228;-72
2022/03/18 00:54:16;;;;;;;24.83;8.80;;;;;;;-0.28;88.32;103932.25;4954145;28;20296;-72
2022/03/18 00:56:41;;;;;;;27.47;9.57;;;;;;;-0.30;89.40;103942.16;4971769;28;20283;-72
2022/03/18 00:59:06;;;;;;;24.70;8.70;;;;;;;-0.40;89.19;103946.88;4971454;28;20188;-72
2022/03/18 01:01:33;;;;;;;21.43;8.53;;;;;;;-0.44;88.82;103941.34;4970858;28;20199;-72
2022/03/18 01:03:58;;;;;;;24.87;8.47;;;;;;;-0.46;88.87;103946.19;4970082;28;20207;-72
2022/03/18 01:06:23;;;;;;;17.70;7.93;;;;;;;-0.43;88.42;103941.50;4971113;28;20698;-72
2022/03/18 01:08:49;;;;;;;22.47;9.23;;;;;;;-0.46;89.32;103942.78;4970825;28;20883;-72
2022/03/18 01:11:14;;;;;;;31.80;9.50;;;;;;;-0.53;88.78;103935.25;4971306;28;20197;-72
2022/03/18 01:13:39;;;;;;;26.43;8.50;;;;;;;-0.56;88.83;103940.84;4970971;28;20188;-72
2022/03/18 01:16:05;;;;;;;21.50;7.80;;;;;;;-0.63;88.57;103937.47;4969740;28;20678;-72
2022/03/18 01:18:30;;;;;;;24.47;8.43;;;;;;;-0.65;88.15;103943.94;4971130;28;20228;-72
2022/03/18 01:20:56;;;;;;;20.00;8.03;;;;;;;-0.63;89.02;103945.03;4971051;28;20192;-72
2022/03/18 01:23:21;;;;;;;21.77;7.40;;;;;;;-0.59;89.60;103952.19;4971171;28;20220;-72
2022/03/18 01:25:46;;;;;;;23.10;7.90;;;;;;;-0.60;89.10;103942.81;4970281;28;20213;-72
2022/03/18 01:28:13;;;;;;;17.30;7.43;;;;;;;-0.64;89.31;103950.78;4966399;28;20565;-72
2022/03/18 01:30:39;;;;;;;17.97;6.87;;;;;;;-0.67;88.85;103955.44;4960507;28;20262;-72
2022/03/18 01:33:04;;;;;;;19.47;8.40;;;;;;;-0.74;88.97;103963.00;4970930;28;20192;-72
2022/03/18 01:35:30;;;;;;;21.37;8.03;;;;;;;-0.80;88.67;103960.72;4970697;28;20479;-72
2022/03/18 01:37:55;;;;;;;20.97;7.53;;;;;;;-0.79;88.51;103965.00;4969332;28;20209;-72
2022/03/18 01:40:21;;;;;;;18.37;8.03;;;;;;;-0.86;88.91;103965.00;4970265;28;20199;-72
2022/03/18 01:42:46;;;;;;;23.63;8.33;;;;;;;-0.85;88.98;103965.94;4971008;28;20180;-72
2022/03/18 01:45:12;;;;;;;20.70;7.97;;;;;;;-0.79;88.80;103964.09;4970669;28;20244;-72
2022/03/18 01:47:42;;;;;;;19.93;7.47;;;;;;;-0.70;88.94;103968.56;4969768;28;20262;-72
2022/03/18 01:50:10;;;;;;;17.40;7.83;;;;;;;-0.69;89.14;103965.34;4966162;28;20205;-72
2022/03/18 01:52:36;;;;;;;13.70;6.97;;;;;;;-0.71;89.42;103973.44;4958133;28;20455;-72
2022/03/18 01:55:02;;;;;;;19.33;7.63;;;;;;;-0.82;89.81;103969.69;4966211;28;20449;-72
2022/03/18 01:57:28;;;;;;;15.57;7.80;;;;;;;-0.81;89.14;103968.97;4969394;28;21007;-72
2022/03/18 01:59:56;;;;;;;21.30;7.80;;;;;;;-0.84;89.15;103973.66;4970406;28;20195;-72
2022/03/18 02:02:22;;;;;;;18.07;7.57;;;;;;;-0.85;89.35;103974.38;4960379;28;20449;-73
2022/03/18 02:04:48;;;;;;;15.83;6.97;;;;;;;-0.93;89.43;103969.16;4957540;28;20558;-72
2022/03/18 02:07:15;;;;;;;17.93;7.70;;;;;;;-0.93;88.84;103974.19;4970453;28;20189;-72
2022/03/18 02:09:41;;;;;;;18.77;7.93;;;;;;;-0.98;89.02;103978.72;4970258;28;20530;-72
2022/03/18 02:12:09;;;;;;;19.43;8.37;;;;;;;-0.97;89.18;103983.00;4970130;28;20941;-72
2022/03/18 02:14:43;;;;;;;27.47;9.40;;;;;;;-0.93;89.24;103981.75;4970252;28;20212;-72
2022/03/18 02:17:11;;;;;;;21.27;9.40;;;;;;;-0.94;89.14;103988.41;4963444;28;20485;-72
2022/03/18 02:19:38;;;;;;;20.37;9.00;;;;;;;-1.00;89.64;103989.31;4964640;28;20535;-72
2022/03/18 02:22:25;;;;;;;22.17;8.73;;;;;;;-1.04;89.84;103988.06;4965973;28;20547;-72
2022/03/18 02:24:53;;;;;;;20.50;9.13;;;;;;;-1.13;89.68;104004.59;4958977;28;20475;-72
2022/03/18 02:27:19;;;;;;;23.77;9.37;;;;;;;-1.15;89.58;104006.03;4970135;28;20499;-72
2022/03/18 02:29:45;;;;;;;22.23;9.33;;;;;;;-1.13;89.46;104012.13;4970133;28;20643;-72
2022/03/18 02:32:13;;;;;;;19.83;8.83;;;;;;;-1.16;89.04;104018.41;4970188;28;20197;-72
2022/03/18 02:34:39;;;;;;;25.47;9.50;;;;;;;-1.21;89.00;104016.97;4968695;28;20456;-72
2022/03/18 02:37:06;;;;;;;19.73;9.17;;;;;;;-1.20;89.30;104023.78;4965664;28;20890;-72
2022/03/18 02:39:32;;;;;;;21.93;8.87;;;;;;;-1.22;88.95;104023.63;4962693;28;21047;-72
2022/03/18 02:41:57;;;;;;;19.47;8.87;;;;;;;-1.25;88.74;104023.25;4969901;28;20454;-72
2022/03/18 02:44:23;;;;;;;16.43;8.57;;;;;;;-1.23;88.80;104025.97;4969895;28;20470;-72
2022/03/18 02:46:49;;;;;;;28.70;10.33;;;;;;;-1.20;89.19;104029.72;4969062;28;20223;-72
2022/03/18 02:49:15;;;;;;;18.00;9.57;;;;;;;-1.24;89.00;104032.59;4970318;28;20191;-72
2022/03/18 02:51:41;;;;;;;24.03;9.73;;;;;;;-1.28;89.27;104037.97;4973538;28;20877;-72
2022/03/18 02:54:09;;;;;;;20.73;9.13;;;;;;;-1.26;89.16;104038.16;4973780;28;20216;-72
2022/03/18 02:56:35;;;;;;;20.50;9.13;;;;;;;-1.34;89.29;104046.41;4973642;28;20611;-72
2022/03/18 02:59:02;;;;;;;23.63;9.50;;;;;;;-1.36;89.45;104046.25;4972569;28;20546;-71
2022/03/18 03:01:28;;;;;;;17.33;9.73;;;;;;;-1.36;89.32;104047.84;4973459;28;20755;-72
2022/03/18 03:03:54;;;;;;;14.87;8.67;;;;;;;-1.37;89.26;104046.06;4973542;28;20518;-72
2022/03/18 03:09:04;;;;;;;20.70;9.43;;;;;;;-1.36;88.86;104046.25;4973277;28;20447;-72
2022/03/18 03:11:29;;;;;;;20.40;10.03;;;;;;;-1.38;89.42;104057.72;4973285;28;20444;-72
2022/03/18 03:13:55;;;;;;;17.37;9.63;;;;;;;-1.31;90.46;104052.72;4970705;28;20227;-72
2022/03/18 03:16:20;;;;;;;19.07;10.03;;;;;;;-1.31;90.07;104050.19;4972117;28;20204;-72
2022/03/18 03:18:46;;;;;;;18.97;10.40;;;;;;;-1.34;90.74;104062.38;4973116;28;20192;-71
2022/03/18 03:21:12;;;;;;;19.33;9.80;;;;;;;-1.36;90.42;104062.91;4973434;28;20192;-72
2022/03/18 03:23:38;;;;;;;17.53;9.57;;;;;;;-1.37;91.47;104062.00;4972144;28;20961;-71
2022/03/18 03:26:04;;;;;;;17.47;9.93;;;;;;;-1.44;91.25;104069.56;4971249;28;20558;-71
2022/03/18 03:28:29;;;;;;;16.47;10.00;;;;;;;-1.44;91.07;104073.66;4972803;28;20285;-72
2022/03/18 03:30:54;;;;;;;15.83;9.70;;;;;;;-1.44;91.58;104074.59;4968573;28;20205;-72
2022/03/18 03:33:20;;;;;;;15.63;10.50;;;;;;;-1.43;91.23;104073.84;4968933;28;20603;-72
2022/03/18 03:35:45;;;;;;;14.10;9.60;;;;;;;-1.48;91.34;104079.03;4972918;28;21050;-71
2022/03/18 03:38:14;;;;;;;14.40;9.10;;;;;;;-1.49;91.44;104093.25;4973084;28;20220;-71
2022/03/18 03:40:40;;;;;;;11.47;8.90;;;;;;;-1.50;91.78;104083.91;4972658;28;20192;-71
2022/03/18 03:43:06;;;;;;;13.70;9.30;;;;;;;-1.52;91.14;104076.91;4971525;28;20953;-72
2022/03/18 03:45:31;;;;;;;13.17;8.97;;;;;;;-1.52;90.93;104085.31;4970109;28;20484;-71
2022/03/18 03:47:56;;;;;;;12.90;9.47;;;;;;;-1.54;90.62;104085.84;4987770;28;20251;-72
2022/03/18 03:50:22;;;;;;;9.57;7.70;;;;;;;-1.56;90.66;104092.34;4972818;28;20283;-72
2022/03/18 03:52:47;;;;;;;13.67;7.83;;;;;;;-1.59;90.46;104090.34;4972847;28;20235;-71
2022/03/18 03:55:13;;;;;;;10.07;7.60;;;;;;;-1.60;90.31;104091.03;4972164;28;20211;-72
2022/03/18 03:57:40;;;;;;;9.67;7.80;;;;;;;-1.50;90.98;104086.44;4972608;28;20220;-72
2022/03/18 04:00:07;;;;;;;11.97;8.03;;;;;;;-1.53;91.00;104092.66;4970859;28;20207;-72
2022/03/18 04:02:32;;;;;;;11.20;8.03;;;;;;;-1.54;90.75;104100.94;4962272;28;20460;-71
2022/03/18 04:04:58;;;;;;;10.67;7.97;;;;;;;-1.60;90.55;104102.72;4963344;28;20487;-72
2022/03/18 04:07:27;;;;;;;9.97;7.17;;;;;;;-1.62;90.49;104115.09;4963244;28;20733;-72
2022/03/18 04:09:54;;;;;;;12.97;7.70;;;;;;;-1.66;89.98;104112.03;4962613;28;20196;-71
2022/03/18 04:12:23;;;;;;;14.30;7.73;;;;;;;-1.64;89.87;104113.09;4972213;28;20960;-72
2022/03/18 04:14:49;;;;;;;16.03;8.03;;;;;;;-1.68;89.86;104119.38;4972001;28;20845;-72
2022/03/18 04:17:15;;;;;;;8.90;7.27;;;;;;;-1.71;90.07;104121.50;4970860;28;20447;-72
2022/03/18 04:19:40;;;;;;;14.17;7.57;;;;;;;-1.76;89.90;104132.63;4972076;28;20454;-72
2022/03/18 04:22:06;;;;;;;11.27;7.90;;;;;;;-1.75;89.59;104129.38;4970925;28;20196;-71
2022/03/18 04:24:31;;;;;;;16.97;7.67;;;;;;;-1.76;89.46;104130.09;4971525;28;20344;-71
2022/03/18 04:26:57;;;;;;;14.20;8.37;;;;;;;-1.75;89.37;104138.56;4972207;28;20662;-71
2022/03/18 04:29:23;;;;;;;12.27;7.93;;;;;;;-1.71;89.27;104131.56;4971657;28;20220;-71
2022/03/18 04:31:49;;;;;;;14.20;7.60;;;;;;;-1.71;89.62;104139.09;4970809;28;20196;-71
2022/03/18 04:34:15;;;;;;;13.07;8.30;;;;;;;-1.67;90.20;104142.88;4971952;28;20219;-71
2022/03/18 04:36:40;;;;;;;11.43;8.43;;;;;;;-1.63;90.50;104148.47;4970524;28;20196;-72
2022/03/18 04:39:05;;;;;;;13.00;7.60;;;;;;;-1.69;90.72;104157.75;4971811;28;20181;-72
2022/03/18 04:41:31;;;;;;;12.83;8.53;;;;;;;-1.63;90.46;104160.09;4971861;28;20193;-72
2022/03/18 04:44:08;;;;;;;14.20;8.50;;;;;;;-1.59;91.08;104162.28;5065757;28;20586;-72
2022/03/18 04:46:34;;;;;;;13.80;8.73;;;;;;;-1.59;90.96;104160.69;5046704;28;20440;-73
2022/03/18 04:49:00;;;;;;;14.20;8.90;;;;;;;-1.59;91.87;104164.78;5045668;28;20186;-72
2022/03/18 04:51:26;;;;;;;17.97;10.30;;;;;;;-1.61;92.02;104173.75;5045523;28;20200;-73
2022/03/18 04:53:52;;;;;;;15.87;9.70;;;;;;;-1.54;92.37;104171.25;5046575;28;20938;-73
2022/03/18 04:59:01;;;;;;;16.73;8.77;;;;;;;-1.46;93.12;104181.50;5045340;28;20182;-73
2022/03/18 05:01:27;;;;;;;19.60;9.20;;;;;;;-1.48;93.15;104180.44;5055696;28;20878;-73
2022/03/18 05:03:52;;;;;;;18.00;9.00;;;;;;;-1.45;93.78;104195.88;5065192;28;20263;-73
2022/03/18 05:06:18;;;;;;;22.23;9.63;;;;;;;-1.47;93.71;104189.75;5066343;28;20235;-73
2022/03/18 05:08:44;;;;;;;21.20;9.07;;;;;;;-1.41;93.71;104182.06;5066222;28;20185;-73
2022/03/18 05:11:09;;;;;;;15.40;7.80;;;;;;;-1.37;93.75;104186.75;5065251;28;20270;-73
2022/03/18 05:13:34;;;;;;;21.37;8.50;;;;;;;-1.37;94.14;104182.59;5066344;28;20319;-73
2022/03/18 05:16:00;;;;;;;17.33;7.70;;;;;;;-1.35;93.67;104201.31;5066172;28;20221;-73
2022/03/18 05:18:25;;;;;;;17.37;7.63;;;;;;;-1.36;93.69;104202.03;5066206;28;20185;-73
2022/03/18 05:20:50;;;;;;;14.20;7.13;;;;;;;-1.38;93.73;104207.56;5066271;28;20189;-73
2022/03/18 05:23:17;;;;;;;17.97;7.60;;;;;;;-1.34;93.75;104204.69;5063517;28;20224;-73
2022/03/18 05:25:43;;;;;;;10.47;7.20;;;;;;;-1.29;93.64;104207.03;5044909;28;20226;-73
2022/03/18 05:28:08;;;;;;;13.23;7.00;;;;;;;-1.27;93.82;104207.25;5046515;28;20803;-73
2022/03/18 05:30:34;;;;;;;11.30;7.20;;;;;;;-1.32;93.08;104225.91;5031038;28;20190;-73
2022/03/18 05:33:00;;;;;;;11.03;7.00;;;;;;;-1.38;93.03;104230.19;5064928;28;20169;-73
2022/03/18 05:35:25;;;;;;;12.30;6.17;;;;;;;-1.44;92.62;104231.94;5064301;28;20490;-72
2022/03/18 05:37:51;;;;;;;10.90;6.33;;;;;;;-1.46;92.52;104240.91;5048035;28;20692;-72
2022/03/18 05:40:18;;;;;;;11.73;6.47;;;;;;;-1.46;92.11;104233.38;5065908;28;20669;-72
2022/03/18 05:42:45;;;;;;;12.07;6.37;;;;;;;-1.43;91.59;104246.28;5065736;28;20209;-72
2022/03/18 05:45:10;;;;;;;12.20;6.60;;;;;;;-1.44;91.16;104249.53;5065660;28;20538;-72
2022/03/18 05:47:36;;;;;;;15.97;6.97;;;;;;;-1.44;91.03;104252.94;5065900;28;20537;-73
2022/03/18 05:50:05;;;;;;;10.03;6.60;;;;;;;-1.40;90.88;104256.72;5065712;28;20185;-72
2022/03/18 05:52:37;;;;;;;10.60;6.17;;;;;;;-1.40;90.80;104259.22;5065573;28;20264;-73
2022/03/18 05:55:03;;;;;;;12.50;6.37;;;;;;;-1.41;90.41;104262.47;5053515;28;20459;-73
2022/03/18 05:57:30;;;;;;;10.63;6.10;;;;;;;-1.35;90.22;104270.75;5052127;28;20467;-72
2022/03/18 05:59:57;;;;;;;11.57;6.47;;;;;;;-1.33;90.42;104271.84;5046735;28;20444;-72
2022/03/18 06:02:23;;;;;;;14.90;6.20;;;;;;;-1.29;90.19;104272.38;5048108;28;20551;-72
2022/03/18 06:04:49;;;;;;;12.80;6.50;;;;;;;-1.25;89.96;104281.19;5051832;28;20666;-73
2022/03/18 06:07:14;;;;;;;11.80;6.23;;;;;;;-1.22;90.64;104279.97;5052079;28;20543;-73
2022/03/18 06:12:24;;;;;;;13.47;6.40;;;;;;;-0.98;90.67;104285.44;5051976;28;20252;-73
2022/03/18 06:14:49;;;;;;;14.47;6.20;;;;;;;-0.97;90.33;104291.34;5050429;28;20217;-73
2022/03/18 06:17:15;;;;;;;10.73;5.63;;;;;;;-0.91;90.32;104284.56;5051629;28;20651;-73
2022/03/18 06:19:40;;;;;;;11.40;6.13;;;;;;;-0.84;90.54;104282.94;5035092;28;20230;-73
2022/03/18 06:22:08;;;;;;;10.33;6.47;;;;;;;-0.71;90.31;104282.78;5011993;28;20265;-73
2022/03/18 06:24:34;;;;;;;10.03;6.13;;;;;;;-0.53;90.30;104298.47;5025042;28;20217;-73
2022/03/18 06:27:01;;;;;;;12.37;6.73;;;;;;;-0.43;90.60;104287.84;5031830;28;20186;-73
2022/03/18 06:29:27;;;;;;;13.00;7.07;;;;;;;-0.27;90.23;104286.44;5031787;28;20272;-73
2022/03/18 06:31:53;;;;;;;13.33;6.53;;;;;;;-0.19;90.49;104299.19;5030601;28;20281;-73
2022/03/18 06:34:22;;;;;;;13.20;6.80;;;;;;;-0.10;90.09;104292.72;5030565;28;20345;-73
2022/03/18 06:36:48;;;;;;;15.37;6.80;;;;;;;0.05;90.50;104288.59;5031597;28;20190;-73
2022/03/18 06:39:14;;;;;;;13.70;6.40;;;;;;;0.24;90.75;104285.84;5031669;28;20197;-73
2022/03/18 06:41:39;;;;;;;12.77;6.97;;;;;;;0.46;90.81;104298.38;5031447;28;20720;-73
2022/03/18 06:44:07;;;;;;;11.53;6.80;;;;;;;0.63;90.90;104289.50;5031226;28;20217;-73
2022/03/18 06:46:32;;;;;;;14.33;7.50;;;;;;;0.89;90.26;104298.41;5029905;28;20782;-73
2022/03/18 06:48:57;;;;;;;20.03;7.53;;;;;;;1.22;90.49;104299.69;5029966;28;20191;-74
2022/03/18 06:51:23;;;;;;;13.27;7.13;;;;;;;1.50;89.61;104303.63;5016136;28;20237;-73
2022/03/18 06:53:48;;;;;;;12.67;7.83;;;;;;;1.67;90.19;104291.25;5037744;28;20190;-73
2022/03/18 06:56:13;;;;;;;14.37;7.43;;;;;;;1.76;90.36;104300.75;5029870;28;20195;-74
2022/03/18 06:58:40;;;;;;;13.00;6.87;;;;;;;1.82;91.10;104303.94;5034632;28;20191;-74
2022/03/18 07:01:05;;;;;;;11.23;6.67;;;;;;;1.88;91.22;104306.25;5050175;28;20200;-74
2022/03/18 07:03:30;;;;;;;17.27;7.17;;;;;;;1.95;91.63;104307.09;5050444;28;20222;-74
2022/03/18 07:05:56;;;;;;;13.23;5.93;;;;;;;2.08;91.08;104302.63;5028174;28;20222;-73
2022/03/18 07:08:21;;;;;;;16.23;6.23;;;;;;;2.20;91.52;104301.41;5030815;28;20202;-72
2022/03/18 07:10:47;;;;;;;15.13;6.80;;;;;;;2.47;90.23;104296.81;5030079;28;20291;-73
2022/03/18 07:13:12;;;;;;;12.07;6.20;;;;;;;2.88;90.13;104289.44;5041223;28;20190;-73
2022/03/18 07:15:37;;;;;;;16.13;6.63;;;;;;;2.90;89.46;104303.13;5030418;28;20582;-74
2022/03/18 07:18:03;;;;;;;16.73;6.43;;;;;;;2.84;89.41;104304.13;5030215;28;20194;-73
2022/03/18 07:20:33;;;;;;;19.70;6.43;;;;;;;2.71;90.04;104301.94;5029304;28;20186;-72
2022/03/18 07:23:01;;;;;;;12.77;5.53;;;;;;;2.96;88.90;104311.41;5030160;28;20210;-73
2022/03/18 07:25:27;;;;;;;15.50;5.93;;;;;;;3.09;88.37;104313.56;5030188;28;20687;-72
2022/03/18 07:27:52;;;;;;;13.60;5.90;;;;;;;3.21;88.35;104313.22;5029120;28;20188;-73
2022/03/18 07:30:17;;;;;;;15.37;5.70;;;;;;;3.24;88.31;104316.06;5029198;28;20205;-73
2022/03/18 07:32:43;;;;;;;12.23;5.00;;;;;;;3.24;88.13;104315.16;5028797;28;20190;-73
2022/03/18 07:35:10;;;;;;;11.47;5.30;;;;;;;3.64;88.18;104313.50;5030003;28;20252;-72
2022/03/18 07:37:35;;;;;;;16.77;5.90;;;;;;;3.88;87.35;104318.53;5030028;28;20221;-72
2022/03/18 07:40:01;;;;;;;13.20;5.73;;;;;;;3.96;86.37;104315.13;5030245;28;20671;-73
2022/03/18 07:42:26;;;;;;;15.53;6.63;;;;;;;4.04;85.51;104317.69;5029916;28;20210;-72
2022/03/18 07:44:52;;;;;;;15.47;5.30;;;;;;;4.25;85.24;104322.41;5029909;28;20313;-72
2022/03/18 07:47:17;;;;;;;16.43;5.23;;;;;;;4.18;85.17;104325.06;5030304;28;20191;-72
2022/03/18 07:49:42;;;;;;;16.23;5.30;;;;;;;4.18;85.39;104330.13;5030086;28;20201;-72
2022/03/18 07:52:07;;;;;;;13.77;5.30;;;;;;;4.23;84.87;104336.56;5029714;28;20187;-72
2022/03/18 07:54:33;;;;;;;12.53;5.10;;;;;;;4.22;85.64;104344.91;5029998;28;20240;-72
2022/03/18 07:56:58;;;;;;;13.13;5.47;;;;;;;4.13;85.51;104343.06;5030560;28;20190;-72
2022/03/18 07:59:24;;;;;;;17.83;5.73;;;;;;;4.17;85.09;104345.19;5040178;28;20189;-72
2022/03/18 08:01:49;;;;;;;12.50;5.70;;;;;;;4.15;85.39;104350.09;5052688;28;20222;-74
2022/03/18 08:04:14;;;;;;;14.90;5.57;;;;;;;4.20;86.20;104340.44;5044067;28;20218;-73
2022/03/18 08:06:40;;;;;;;13.50;5.33;;;;;;;4.32;85.40;104346.75;5033642;28;20640;-72
2022/03/18 08:09:05;;;;;;;16.50;5.93;;;;;;;4.54;85.41;104348.13;5030574;28;20647;-72
2022/03/18 08:11:32;;;;;;;14.47;6.07;;;;;;;4.59;85.89;104340.22;5041555;28;20206;-72
2022/03/18 08:13:57;;;;;;;13.67;5.57;;;;;;;4.62;85.80;104339.63;5038343;28;20186;-72
2022/03/18 08:16:23;;;;;;;15.60;5.30;;;;;;;4.71;85.26;104350.69;5047906;28;20190;-72
2022/03/18 08:18:48;;;;;;;13.13;5.97;;;;;;;4.78;85.63;104341.31;5045413;28;20189;-72
2022/03/18 08:21:17;;;;;;;13.57;5.23;;;;;;;4.82;85.68;104353.56;5030668;28;20554;-72
2022/03/18 08:23:42;;;;;;;19.80;5.70;;;;;;;5.08;85.86;104357.03;5030511;28;20206;-72
2022/03/18 08:26:08;;;;;;;15.87;5.20;;;;;;;5.20;84.60;104367.47;5028193;28;20190;-72
2022/03/18 08:28:33;;;;;;;13.17;5.63;;;;;;;5.22;84.86;104373.59;5034637;28;20247;-72
2022/03/18 08:30:58;;;;;;;12.27;5.70;;;;;;;5.34;84.58;104377.34;5029606;28;20189;-72
2022/03/18 08:33:24;;;;;;;16.00;5.80;;;;;;;5.42;84.06;104377.31;5030336;28;20240;-73
2022/03/18 08:35:50;;;;;;;13.37;5.50;;;;;;;5.67;84.52;104380.56;5043873;28;20211;-73
2022/03/18 08:38:15;;;;;;;26.60;6.37;;;;;;;5.77;83.31;104389.22;5048566;28;20190;-73
2022/03/18 08:40:41;;;;;;;13.97;4.93;;;;;;;5.71;82.68;104392.81;5048417;28;20225;-73
2022/03/18 08:43:12;;;;;;;11.07;5.33;;;;;;;5.76;82.62;104395.03;5049000;28;20252;-73
2022/03/18 08:45:37;;;;;;;17.50;6.03;;;;;;;5.84;82.38;104406.00;5029241;28;20229;-73
2022/03/18 08:48:04;;;;;;;14.63;5.80;;;;;;;5.86;81.84;104412.13;5029973;28;20221;-73
2022/03/18 08:50:30;;;;;;;12.97;5.40;;;;;;;5.80;82.51;104417.50;5028069;28;20252;-73
2022/03/18 08:52:57;;;;;;;15.70;6.17;;;;;;;5.73;82.80;104419.28;5029528;28;20186;-73
2022/03/18 08:55:23;;;;;;;16.47;6.30;;;;;;;5.65;83.39;104421.09;5030172;28;20236;-73
2022/03/18 08:57:49;;;;;;;13.57;6.00;;;;;;;5.75;83.37;104428.84;5044512;28;20186;-73
2022/03/18 09:00:16;;;;;;;12.90;6.60;;;;;;;5.81;83.86;104428.59;5056371;28;20304;-73
2022/03/18 09:02:43;;;;;;;15.53;6.80;;;;;;;5.96;83.79;104437.66;5062790;28;20251;-73
2022/03/18 09:05:10;;;;;;;15.87;7.63;;;;;;;6.20;82.68;104434.91;5028370;28;20759;-73
2022/03/18 09:07:36;;;;;;;23.20;7.60;;;;;;;6.52;83.24;104437.19;5038211;28;20182;-73
2022/03/18 09:10:04;;;;;;;15.87;7.80;;;;;;;7.00;81.67;104428.06;5030233;28;20652;-73
2022/03/18 09:12:29;;;;;;;18.53;7.67;;;;;;;7.40;79.21;104420.69;5029258;28;20927;-73
2022/03/18 09:14:54;;;;;;;13.73;6.83;;;;;;;7.34;79.25;104418.53;5029577;28;20207;-73
2022/03/18 09:17:20;;;;;;;12.90;6.80;;;;;;;7.08;78.81;104432.19;5029218;28;20225;-74
2022/03/18 09:19:46;;;;;;;13.97;6.70;;;;;;;7.17;79.85;104433.94;5036008;28;20210;-73
2022/03/18 09:22:13;;;;;;;17.63;6.60;;;;;;;8.43;74.76;104427.44;5048866;28;20214;-73
2022/03/18 09:24:39;;;;;;;14.30;6.27;;;;;;;9.39;74.04;104425.38;5047208;28;20214;-73
2022/03/18 09:27:05;;;;;;;12.17;5.80;;;;;;;9.78;70.94;104428.63;5048616;28;20190;-73
2022/03/18 09:29:30;;;;;;;13.73;5.03;;;;;;;10.22;68.78;104421.91;5047163;28;20671;-74
2022/03/18 09:31:56;;;;;;;10.23;4.83;;;;;;;11.71;64.87;104412.03;5034202;28;20269;-74
2022/03/18 09:34:24;;;;;;;10.97;5.10;;;;;;;16.43;51.23;104406.94;5032513;28;20229;-72
2022/03/18 09:36:55;;;;;;;10.02;5.32;;;;;;;20.36;39.46;104404.16;5032486;28;20195;-72
2022/03/18 09:39:22;;;;;;;9.70;5.28;;;;;;;21.53;36.07;104407.38;5039201;28;20236;-72
2022/03/18 09:41:48;;;;;;;11.35;6.38;;;;;;;21.94;35.92;104415.69;5047318;28;20186;-72
2022/03/18 09:44:13;;;;;;;10.65;5.32;;;;;;;23.40;32.32;104416.22;5051037;28;20788;-72
2022/03/18 09:46:42;;;;;;;15.07;5.75;;;;;;;24.91;30.12;104418.59;5052361;28;20663;-72
2022/03/18 09:49:11;;;;;;;10.63;5.43;;;;;;;25.21;29.44;104424.34;5047110;28;20209;-72
2022/03/18 09:51:42;;;;;;;8.57;5.43;;;;;;;25.73;28.50;104427.84;5041101;28;20272;-72
2022/03/18 09:54:09;;;;;;;11.98;6.28;;;;;;;25.46;29.77;104434.44;5050403;28;20861;-72
2022/03/18 09:56:35;;;;;;;11.15;5.63;;;;;;;26.37;28.09;104433.09;5050210;28;20190;-72
2022/03/18 09:59:00;;;;;;;9.63;5.15;;;;;;;25.98;28.51;104435.25;5050625;28;20193;-72
2022/03/18 10:01:25;;;;;;;8.82;5.13;;;;;;;25.68;28.82;104433.88;5059704;28;20272;-72
2022/03/18 10:03:51;;;;;;;9.82;4.93;;;;;;;26.47;28.42;104434.09;5067025;28;20632;-72
2022/03/18 10:06:16;;;;;;;8.52;5.32;;;;;;;27.07;27.06;104422.41;5051477;28;20222;-72
2022/03/18 10:08:42;;;;;;;10.38;5.47;;;;;;;27.54;25.89;104426.31;5033484;28;20186;-72
2022/03/18 10:11:20;;;;;;;8.40;5.30;;;;;;;28.36;25.68;104432.91;5041778;28;20197;-72
2022/03/18 10:14:02;;;;;;;9.73;5.57;;;;;;;27.44;25.99;104429.75;5050232;28;20519;-72
2022/03/18 10:16:38;;;;;;;7.03;4.88;;;;;;;28.10;24.88;104421.38;5051717;28;20178;-73
2022/03/18 10:19:06;;;;;;;10.00;5.57;;;;;;;29.10;24.12;104415.47;5047567;28;20274;-72
2022/03/18 10:21:33;;;;;;;9.75;5.28;;;;;;;30.40;22.85;104415.97;5038564;28;20205;-73
2022/03/18 10:24:07;;;;;;;13.18;6.18;;;;;;;30.59;22.04;104417.63;5049969;28;20213;-73
2022/03/18 10:26:38;;;;;;;10.25;5.65;;;;;;;30.16;23.33;104430.25;5050034;28;20197;-73
2022/03/18 10:29:04;;;;;;;9.85;5.38;;;;;;;30.05;23.17;104430.25;5045796;28;20285;-73
2022/03/18 10:31:29;;;;;;;8.63;5.32;;;;;;;27.95;24.96;104430.09;5030434;28;20671;-72
2022/03/18 10:37:04;;;;;;;10.60;5.85;;;;;;;29.37;23.62;104433.91;5031531;28;20187;-72
2022/03/18 10:39:38;;;;;;;9.60;5.43;;;;;;;30.79;21.90;104423.69;5044302;28;20231;-73
2022/03/18 10:42:11;;;;;;;9.98;5.75;;;;;;;30.26;22.66;104421.38;5050742;28;20193;-73
2022/03/18 10:44:51;;;;;;;10.07;5.80;;;;;;;31.36;20.93;104429.41;5051008;28;20233;-73
2022/03/18 10:47:36;;;;;;;8.93;6.15;;;;;;;31.51;20.67;104429.25;5046984;28;20198;-72
2022/03/18 10:50:11;;;;;;;11.32;6.38;;;;;;;32.52;20.08;104423.56;5031307;28;20213;-73
2022/03/18 10:52:45;;;;;;;10.63;6.13;;;;;;;32.46;20.83;104426.28;5043294;28;20272;-72
2022/03/18 10:55:22;;;;;;;12.77;6.07;;;;;;;31.60;21.55;104428.25;5038003;28;20218;-73
2022/03/18 10:58:00;;;;;;;10.82;6.00;;;;;;;32.38;20.54;104435.28;5033044;28;20272;-73
2022/03/18 11:00:31;;;;;;;11.70;6.13;;;;;;;32.69;20.38;104436.59;5056934;28;20614;-73
2022/03/18 11:02:58;;;;;;;11.65;5.95;;;;;;;32.25;21.69;104439.84;5064847;28;20310;-73
2022/03/18 11:05:25;;;;;;;11.13;6.03;;;;;;;32.32;21.36;104446.00;5069054;28;20197;-73
2022/03/18 11:07:52;;;;;;;11.90;6.60;;;;;;;31.65;21.20;104432.63;5031733;28;20202;-73
2022/03/18 11:13:04;;;;;;;11.57;6.18;;;;;;;32.41;19.70;104430.78;5031586;28;20571;-73
2022/03/18 11:15:31;;;;;;;10.45;5.88;;;;;;;32.44;20.83;104427.22;5029402;28;20206;-73
2022/03/18 11:17:57;;;;;;;10.43;5.70;;;;;;;34.38;19.15;104428.03;5030988;28;20320;-73
2022/03/18 11:20:26;;;;;;;10.98;5.97;;;;;;;33.92;19.09;104435.25;5031991;28;20221;-73
2022/03/18 11:22:51;;;;;;;11.23;6.40;;;;;;;34.88;18.46;104422.41;5031898;28;20187;-73
2022/03/18 11:25:17;;;;;;;9.52;5.90;;;;;;;34.41;18.97;104420.00;5031040;28;20206;-73
2022/03/18 11:27:44;;;;;;;10.00;6.10;;;;;;;34.01;19.83;104432.41;5033708;28;20301;-73
2022/03/18 11:30:34;;;;;;;9.63;5.93;;;;;;;35.43;17.82;104429.84;5044706;28;20190;-72
2022/03/18 11:33:06;;;;;;;11.98;6.20;;;;;;;33.82;19.42;104431.03;5049320;28;20636;-72
2022/03/18 11:35:50;;;;;;;10.13;5.78;;;;;;;34.71;18.59;104426.38;5031365;28;20563;-73
2022/03/18 11:38:17;;;;;;;12.57;5.78;;;;;;;34.37;18.86;104422.75;5028740;28;20251;-73